createdAt,value
2023-04-01T00:00:01.527Z,99837.91
2023-04-01T00:02:28.695Z,99833.41
2023-04-01T00:04:56.159Z,99823.16
2023-04-01T00:07:23.510Z,99832.25
2023-04-01T00:09:50.546Z,99820.75
2023-04-01T00:12:17.469Z,99820.06
2023-04-01T00:14:44.407Z,99824.53
2023-04-01T00:17:11.799Z,99819.63
2023-04-01T00:19:38.672Z,99819.94
2023-04-01T00:22:05.601Z,99818.59
2023-04-01T00:24:32.641Z,99817.63
2023-04-01T00:26:59.458Z,99813.63
2023-04-01T00:29:30.289Z,99816.84
2023-04-01T00:32:00.568Z,99808.44
2023-04-01T00:34:27.720Z,99801.31
2023-04-01T00:36:55.150Z,99804.22
2023-04-01T00:39:22.699Z,99798.69
2023-04-01T00:41:49.566Z,99801.56
2023-04-01T00:44:20.728Z,99806.97
2023-04-01T00:46:48.276Z,99789.84
2023-04-01T00:49:19.662Z,99782.06
2023-04-01T00:51:49.479Z,99787.09
2023-04-01T00:54:18.769Z,99786.44
2023-04-01T00:56:59.039Z,99776.66
2023-04-01T00:59:36.912Z,99776.19
2023-04-01T01:02:07.487Z,99779.03
2023-04-01T01:04:36.475Z,99780.72
2023-04-01T01:07:22.519Z,99782.03
2023-04-01T01:10:07.590Z,99795.91
2023-04-01T01:13:15.728Z,99788.31
2023-04-01T01:15:54.675Z,99796.72
2023-04-01T01:18:50.800Z,99794.50
2023-04-01T01:21:54.980Z,99786.69
2023-04-01T01:24:21.835Z,99795.19
2023-04-01T01:27:01.543Z,99790.34
2023-04-01T01:30:25.577Z,99776.09
2023-04-01T01:33:07.835Z,99781.16
2023-04-01T01:35:37.593Z,99777.59
2023-04-01T01:38:16.280Z,99772.56
2023-04-01T01:40:52.974Z,99756.88
2023-04-01T01:43:24.111Z,99764.81
2023-04-01T01:45:55.856Z,99762.53
2023-04-01T01:48:25.998Z,99772.91
2023-04-01T01:50:54.091Z,99762.06
2023-04-01T01:53:21.887Z,99768.22
2023-04-01T01:55:49.279Z,99770.63
2023-04-01T01:58:23.488Z,99783.69
2023-04-01T02:01:04.011Z,99791.47
2023-04-01T02:03:35.496Z,99781.44
2023-04-01T02:06:05.369Z,99772.91
2023-04-01T02:08:37.574Z,99764.66
2023-04-01T02:11:08.690Z,99769.66
2023-04-01T02:13:57.229Z,99755.28
2023-04-01T02:16:40.332Z,99751.22
2023-04-01T02:19:13.418Z,99752.03
2023-04-01T02:21:42.378Z,99743.66
2023-04-01T02:24:15.678Z,99733.94
2023-04-01T02:26:43.535Z,99733.94
2023-04-01T02:29:12.702Z,99732.00
2023-04-01T02:31:40.222Z,99737.81
2023-04-01T02:34:07.232Z,99736.69
2023-04-01T02:36:37.323Z,99732.91
2023-04-01T02:39:06.004Z,99725.38
2023-04-01T02:41:33.018Z,99733.09
2023-04-01T02:44:00.461Z,99727.03
2023-04-01T02:46:27.480Z,99731.69
2023-04-01T02:48:55.011Z,99726.50
2023-04-01T02:51:24.682Z,99723.53
2023-04-01T02:53:51.623Z,99716.22
2023-04-01T02:56:19.269Z,99714.59
2023-04-01T02:58:46.798Z,99710.47
2023-04-01T03:01:13.844Z,99706.50
2023-04-01T03:03:40.894Z,99699.81
2023-04-01T03:06:10.026Z,99695.72
2023-04-01T03:08:36.967Z,99701.81
2023-04-01T03:11:04.304Z,99698.41
2023-04-01T03:13:34.682Z,99697.47
2023-04-01T03:16:01.805Z,99693.72
2023-04-01T03:18:28.927Z,99690.59
2023-04-01T03:20:57.872Z,99685.44
2023-04-01T03:23:25.392Z,99681.31
2023-04-01T03:25:52.268Z,99687.84
2023-04-01T03:28:19.212Z,99687.31
2023-04-01T03:30:46.392Z,99673.69
2023-04-01T03:33:13.446Z,99674.78
2023-04-01T03:35:40.490Z,99674.56
2023-04-01T03:38:07.348Z,99668.78
2023-04-01T03:40:38.321Z,99663.28
2023-04-01T03:43:09.445Z,99668.91
2023-04-01T03:45:45.576Z,99680.31
2023-04-01T03:48:15.075Z,99677.06
2023-04-01T03:50:42.947Z,99688.69
2023-04-01T03:53:10.485Z,99685.56
2023-04-01T03:55:42.072Z,99683.75
2023-04-01T03:58:09.230Z,99683.00
2023-04-01T04:00:36.750Z,99683.91
2023-04-01T04:03:04.362Z,99697.34
2023-04-01T04:05:34.969Z,99707.56
2023-04-01T04:08:03.140Z,99698.56
2023-04-01T04:10:31.115Z,99700.00
2023-04-01T04:12:58.086Z,99696.56
2023-04-01T04:15:26.761Z,99686.28
2023-04-01T04:17:53.859Z,99685.56
2023-04-01T04:20:20.965Z,99687.59
2023-04-01T04:22:47.941Z,99686.34
2023-04-01T04:25:14.882Z,99680.31
2023-04-01T04:27:42.175Z,99683.09
2023-04-01T04:30:13.391Z,99685.00
2023-04-01T04:32:41.899Z,99693.41
2023-04-01T04:35:10.939Z,99684.34
2023-04-01T04:37:38.119Z,99675.81
2023-04-01T04:40:06.165Z,99675.19
2023-04-01T04:42:33.645Z,99676.88
2023-04-01T04:45:07.660Z,99673.09
2023-04-01T04:47:36.307Z,99675.88
2023-04-01T04:50:03.413Z,99669.91
2023-04-01T04:52:30.510Z,99669.91
2023-04-01T04:54:57.536Z,99667.13
2023-04-01T04:57:24.499Z,99668.81
2023-04-01T04:59:55.318Z,99675.69
2023-04-01T05:02:38.318Z,99679.56
2023-04-01T05:05:06.353Z,99684.25
2023-04-01T05:07:34.532Z,99684.38
2023-04-01T05:10:01.701Z,99673.34
2023-04-01T05:12:28.738Z,99675.38
2023-04-01T05:14:59.156Z,99670.53
2023-04-01T05:17:26.775Z,99664.53
2023-04-01T05:19:54.163Z,99660.44
2023-04-01T05:22:21.639Z,99664.44
2023-04-01T05:24:48.573Z,99664.44
2023-04-01T05:27:15.856Z,99646.00
2023-04-01T05:29:43.651Z,99647.94
2023-04-01T05:32:26.621Z,99651.22
2023-04-01T05:34:54.960Z,99647.22
2023-04-01T05:37:21.952Z,99652.28
2023-04-01T05:39:48.801Z,99646.22
2023-04-01T05:42:16.872Z,99647.56
2023-04-01T05:44:44.026Z,99635.13
2023-04-01T05:47:29.432Z,99635.16
2023-04-01T05:49:56.607Z,99633.38
2023-04-01T05:52:23.514Z,99624.91
2023-04-01T05:54:50.428Z,99625.06
2023-04-01T05:57:18.282Z,99619.09
2023-04-01T05:59:46.918Z,99632.09
2023-04-01T06:02:14.165Z,99625.78
2023-04-01T06:04:42.128Z,99627.22
2023-04-01T06:07:14.171Z,99614.09
2023-04-01T06:09:41.239Z,99612.22
2023-04-01T06:12:37.256Z,99612.66
2023-04-01T06:15:35.918Z,99620.47
2023-04-01T06:18:24.765Z,99610.59
2023-04-01T06:20:54.528Z,99619.50
2023-04-01T06:23:33.013Z,99604.66
2023-04-01T06:26:42.037Z,99606.09
2023-04-01T06:29:27.273Z,99609.91
2023-04-01T06:32:09.491Z,99603.53
2023-04-01T06:34:48.597Z,99602.72
2023-04-01T06:37:44.901Z,99608.81
2023-04-01T06:40:35.911Z,99597.41
2023-04-01T06:43:34.898Z,99598.25
2023-04-01T06:46:47.820Z,99596.00
2023-04-01T06:49:57.760Z,99589.94
2023-04-01T06:52:42.533Z,99579.97
2023-04-01T06:55:47.152Z,99592.22
2023-04-01T06:58:24.635Z,99587.34
2023-04-01T07:00:58.718Z,99582.75
2023-04-01T07:03:36.372Z,99588.84
2023-04-01T07:06:10.329Z,99597.78
2023-04-01T07:08:45.119Z,99600.28
2023-04-01T07:11:27.250Z,99594.22
2023-04-01T07:14:36.169Z,99599.50
2023-04-01T07:17:14.228Z,99605.16
2023-04-01T07:19:48.722Z,99595.41
2023-04-01T07:22:45.735Z,99580.38
2023-04-01T07:40:54.111Z,99576.97
2023-04-01T07:43:28.602Z,99576.72
2023-04-01T07:46:34.456Z,99570.97
2023-04-01T07:49:17.294Z,99569.53
2023-04-01T07:51:50.432Z,99560.78
2023-04-01T07:54:25.818Z,99551.69
2023-04-01T07:57:04.087Z,99556.59
2023-04-01T07:59:44.045Z,99556.75
2023-04-01T08:03:03.191Z,99545.47
2023-04-01T08:05:54.929Z,99536.03
2023-04-01T08:08:44.529Z,99543.06
2023-04-01T08:11:46.062Z,99535.63
2023-04-01T08:14:53.858Z,99526.59
2023-04-01T08:18:05.639Z,99523.94
2023-04-01T08:20:47.502Z,99521.88
2023-04-01T08:23:23.300Z,99527.78
2023-04-01T08:26:05.709Z,99517.44
2023-04-01T08:29:01.132Z,99511.03
2023-04-01T08:31:50.637Z,99503.47
2023-04-01T08:34:35.323Z,99514.13
2023-04-01T08:37:13.221Z,99510.94
2023-04-01T08:39:47.244Z,99501.84
2023-04-01T08:42:31.252Z,99504.69
2023-04-01T08:45:24.436Z,99510.66
2023-04-01T08:48:09.959Z,99508.19
2023-04-01T08:51:11.297Z,99507.63
2023-04-01T08:53:54.119Z,99503.75
2023-04-01T08:56:27.850Z,99497.50
2023-04-01T08:59:22.082Z,99493.09
2023-04-01T09:02:02.000Z,99498.66
2023-04-01T09:05:23.421Z,99502.81
2023-04-01T09:08:09.262Z,99486.94
2023-04-01T09:11:07.486Z,99481.63
2023-04-01T09:14:15.495Z,99476.97
2023-04-01T09:16:50.895Z,99479.09
2023-04-01T09:19:47.881Z,99465.28
2023-04-01T09:22:34.570Z,99460.28
2023-04-01T09:25:07.713Z,99464.44
2023-04-01T09:28:19.617Z,99470.44
2023-04-01T09:31:25.615Z,99453.75
2023-04-01T09:34:54.309Z,99457.44
2023-04-01T09:37:33.521Z,99453.06
2023-04-01T09:40:19.479Z,99460.25
2023-04-01T09:43:17.745Z,99456.00
2023-04-01T09:46:12.631Z,99445.97
2023-04-01T09:48:48.971Z,99442.34
2023-04-01T09:51:45.424Z,99434.34
2023-04-01T09:54:22.470Z,99432.47
2023-04-01T09:57:26.896Z,99417.63
2023-04-01T10:00:33.797Z,99411.00
2023-04-01T10:03:23.801Z,99400.50
2023-04-01T10:05:51.759Z,99399.94
2023-04-01T10:08:22.589Z,99385.38
2023-04-01T10:11:27.458Z,99379.69
2023-04-01T10:14:00.153Z,99376.41
2023-04-01T10:16:38.201Z,99374.09
2023-04-01T10:19:42.654Z,99363.41
2023-04-01T10:22:29.826Z,99362.50
2023-04-01T10:25:26.861Z,99355.81
2023-04-01T10:28:15.543Z,99357.47
2023-04-01T10:31:53.102Z,99368.78
2023-04-01T10:34:47.594Z,99365.47
2023-04-01T10:37:48.734Z,99364.28
2023-04-01T10:40:23.577Z,99368.66
2023-04-01T10:43:13.761Z,99362.69
2023-04-01T10:45:57.234Z,99358.25
2023-04-01T10:49:02.406Z,99353.13
2023-04-01T10:52:03.746Z,99357.09
2023-04-01T10:55:14.069Z,99355.06
2023-04-01T10:58:38.815Z,99347.13
2023-04-01T11:01:46.141Z,99343.34
2023-04-01T11:05:11.081Z,99336.31
2023-04-01T11:08:06.415Z,99333.19
2023-04-01T11:11:18.587Z,99331.38
2023-04-01T11:14:13.841Z,99320.22
2023-04-01T11:16:44.207Z,99316.91
2023-04-01T11:19:45.290Z,99314.41
2023-04-01T11:22:30.651Z,99308.84
2023-04-01T11:25:40.992Z,99310.75
2023-04-01T11:28:50.947Z,99295.31
2023-04-01T11:31:48.640Z,99302.09
2023-04-01T11:34:37.399Z,99298.09
2023-04-01T11:37:22.259Z,99300.06
2023-04-01T11:40:38.614Z,99293.63
2023-04-01T11:43:34.247Z,99296.53
2023-04-01T11:46:32.270Z,99288.53
2023-04-01T11:49:05.401Z,99297.66
2023-04-01T11:52:10.596Z,99298.84
2023-04-01T11:55:07.274Z,99285.78
2023-04-01T11:57:37.205Z,99271.28
2023-04-01T12:00:22.533Z,99269.72
2023-04-01T12:02:58.516Z,99268.56
2023-04-01T12:05:50.603Z,99270.16
2023-04-01T12:08:26.717Z,99261.00
2023-04-01T12:11:17.587Z,99264.97
2023-04-01T12:14:14.219Z,99268.16
2023-04-01T12:17:23.778Z,99269.84
2023-04-01T12:20:46.197Z,99258.66
2023-04-01T12:23:34.565Z,99245.44
2023-04-01T12:26:28.434Z,99246.25
2023-04-01T12:29:15.731Z,99237.13
2023-04-01T12:32:07.005Z,99248.28
2023-04-01T12:34:42.513Z,99245.53
2023-04-01T12:37:30.827Z,99246.72
2023-04-01T12:40:04.037Z,99253.88
2023-04-01T12:42:58.730Z,99263.44
2023-04-01T12:45:28.536Z,99248.34
2023-04-01T12:48:30.974Z,99253.44
2023-04-01T12:51:52.920Z,99251.22
2023-04-01T12:54:38.062Z,99253.03
2023-04-01T12:57:36.060Z,99239.78
2023-04-01T13:00:27.476Z,99246.31
2023-04-01T13:03:19.104Z,99250.38
2023-04-01T13:05:49.016Z,99248.13
2023-04-01T13:08:49.602Z,99231.16
2023-04-01T13:11:19.994Z,99219.25
2023-04-01T13:13:59.045Z,99215.28
2023-04-01T13:16:32.878Z,99220.84
2023-04-01T13:18:59.839Z,99215.03
2023-04-01T13:21:56.047Z,99206.28
2023-04-01T13:24:43.923Z,99202.72
2023-04-01T13:27:36.068Z,99202.34
2023-04-01T13:30:17.705Z,99208.75
2023-04-01T13:33:07.403Z,99204.34
2023-04-01T13:35:47.519Z,99209.91
2023-04-01T13:38:59.309Z,99199.28
2023-04-01T13:41:43.871Z,99204.78
2023-04-01T13:44:14.243Z,99197.25
2023-04-01T13:47:10.950Z,99194.63
2023-04-01T13:49:43.590Z,99181.66
2023-04-01T13:52:19.779Z,99180.16
2023-04-01T13:55:11.978Z,99182.47
2023-04-01T13:57:55.992Z,99188.47
2023-04-01T14:00:38.045Z,99184.56
2023-04-01T14:03:13.928Z,99197.19
2023-04-01T14:06:08.434Z,99188.81
2023-04-01T14:09:04.028Z,99195.16
2023-04-01T14:11:45.069Z,99195.81
2023-04-01T14:14:21.064Z,99189.13
2023-04-01T14:17:03.415Z,99182.06
2023-04-01T14:19:45.534Z,99194.06
2023-04-01T14:22:36.117Z,99198.88
2023-04-01T14:25:27.361Z,99198.47
2023-04-01T14:28:06.279Z,99198.47
2023-04-01T14:30:42.750Z,99189.13
2023-04-01T14:33:27.862Z,99178.44
2023-04-01T14:36:30.240Z,99179.16
2023-04-01T14:39:15.940Z,99178.28
2023-04-01T14:42:15.446Z,99176.31
2023-04-01T14:45:16.376Z,99175.00
2023-04-01T14:48:21.779Z,99187.00
2023-04-01T14:50:52.738Z,99172.28
2023-04-01T14:53:39.921Z,99165.13
2023-04-01T14:56:07.281Z,99142.88
2023-04-01T14:58:48.633Z,99146.88
2023-04-01T15:01:35.828Z,99140.44
2023-04-01T15:04:15.083Z,99134.38
2023-04-01T15:07:39.875Z,99139.44
2023-04-01T15:10:36.800Z,99128.69
2023-04-01T15:13:06.349Z,99128.38
2023-04-01T15:16:03.747Z,99123.31
2023-04-01T15:18:36.535Z,99130.31
2023-04-01T15:21:26.114Z,99134.69
2023-04-01T15:24:05.175Z,99124.50
2023-04-01T15:27:19.549Z,99124.03
2023-04-01T15:30:02.373Z,99123.72
2023-04-01T15:33:15.190Z,99118.97
2023-04-01T15:35:58.624Z,99122.47
2023-04-01T15:38:59.920Z,99127.53
2023-04-01T15:41:57.450Z,99123.31
2023-04-01T15:44:39.455Z,99106.84
2023-04-01T15:47:27.607Z,99103.13
2023-04-01T15:50:01.293Z,99098.59
2023-04-01T15:52:39.969Z,99095.84
2023-04-01T15:55:21.983Z,99094.91
2023-04-01T15:58:13.486Z,99102.28
2023-04-01T16:00:55.998Z,99104.13
2023-04-01T16:03:46.344Z,99102.03
2023-04-01T16:06:32.353Z,99120.16
2023-04-01T16:08:59.202Z,99123.59
2023-04-01T16:12:03.186Z,99122.72
2023-04-01T16:14:48.330Z,99134.34
2023-04-01T16:17:28.712Z,99136.41
2023-04-01T16:20:10.901Z,99144.31
2023-04-01T16:23:03.039Z,99136.06
2023-04-01T16:25:48.922Z,99140.09
2023-04-01T16:28:40.979Z,99150.81
2023-04-01T16:31:27.171Z,99140.31
2023-04-01T16:34:04.245Z,99139.47
2023-04-01T16:36:39.019Z,99140.84
2023-04-01T16:39:08.661Z,99137.38
2023-04-01T16:41:49.684Z,99140.50
2023-04-01T16:44:23.683Z,99138.03
2023-04-01T16:46:57.260Z,99134.50
2023-04-01T16:49:37.747Z,99133.97
2023-04-01T16:52:04.503Z,99140.91
2023-04-01T16:54:52.617Z,99134.81
2023-04-01T16:57:26.530Z,99140.91
2023-04-01T17:00:12.262Z,99136.19
2023-04-01T17:02:48.504Z,99135.75
2023-04-01T17:05:15.589Z,99132.19
2023-04-01T17:07:46.706Z,99118.06
2023-04-01T17:10:23.945Z,99125.25
2023-04-01T17:13:09.456Z,99121.44
2023-04-01T17:16:15.047Z,99115.00
2023-04-01T17:19:10.452Z,99112.53
2023-04-01T17:21:43.578Z,99110.88
2023-04-01T17:24:28.569Z,99107.41
2023-04-01T17:27:01.548Z,99102.47
2023-04-01T17:29:34.137Z,99104.88
2023-04-01T17:32:17.508Z,99100.78
2023-04-01T17:35:05.532Z,99103.06
2023-04-01T17:38:35.954Z,99095.19
2023-04-01T17:41:05.596Z,99097.91
2023-04-01T17:43:54.548Z,99093.91
2023-04-01T17:46:33.740Z,99089.84
2023-04-01T17:49:13.002Z,99098.75
2023-04-01T17:52:02.929Z,99104.63
2023-04-01T17:54:49.309Z,99104.75
2023-04-01T17:57:41.769Z,99102.19
2023-04-01T18:00:25.113Z,99108.78
2023-04-01T18:03:15.365Z,99114.63
2023-04-01T18:06:09.007Z,99113.50
2023-04-01T18:08:44.856Z,99113.06
2023-04-01T18:11:48.821Z,99107.41
2023-04-01T18:14:18.737Z,99119.31
2023-04-01T18:16:57.296Z,99104.56
2023-04-01T18:19:47.403Z,99084.25
2023-04-01T18:22:27.109Z,99071.63
2023-04-01T18:25:14.055Z,99080.59
2023-04-01T18:28:07.034Z,99077.72
2023-04-01T18:30:37.247Z,99085.00
2023-04-01T18:33:24.278Z,99075.22
2023-04-01T18:35:59.614Z,99080.47
2023-04-01T18:38:30.591Z,99095.09
2023-04-01T18:41:16.874Z,99095.63
2023-04-01T18:44:28.878Z,99100.41
2023-04-01T18:47:19.559Z,99108.09
2023-04-01T18:49:55.460Z,99120.75
2023-04-01T18:52:34.569Z,99121.84
2023-04-01T18:55:04.751Z,99129.78
2023-04-01T18:57:54.080Z,99134.63
2023-04-01T19:00:26.325Z,99144.94
2023-04-01T19:03:12.491Z,99156.88
2023-04-01T19:05:43.432Z,99144.47
2023-04-01T19:08:21.573Z,99132.00
2023-04-01T19:11:11.355Z,99130.34
2023-04-01T19:13:47.514Z,99145.03
2023-04-01T19:16:44.866Z,99142.84
2023-04-01T19:19:20.794Z,99135.78
2023-04-01T19:21:57.937Z,99129.09
2023-04-01T19:24:45.744Z,99142.84
2023-04-01T19:27:42.018Z,99140.69
2023-04-01T19:42:35.260Z,99158.16
2023-04-01T19:45:02.141Z,99163.47
2023-04-01T19:47:59.878Z,99160.44
2023-04-01T19:50:38.143Z,99162.56
2023-04-01T19:53:37.808Z,99164.31
2023-04-01T19:56:14.248Z,99165.19
2023-04-01T19:59:20.405Z,99171.50
2023-04-01T20:01:50.362Z,99155.59
2023-04-01T20:04:42.481Z,99137.78
2023-04-01T20:07:24.397Z,99136.25
2023-04-01T20:10:01.027Z,99151.66
2023-04-01T20:12:46.207Z,99155.81
2023-04-01T20:15:36.951Z,99153.41
2023-04-01T20:18:34.074Z,99163.44
2023-04-01T20:21:06.524Z,99129.63
2023-04-01T20:23:59.603Z,99143.66
2023-04-01T20:26:33.109Z,99128.19
2023-04-01T20:29:03.014Z,99130.56
2023-04-01T20:31:41.252Z,99126.81
2023-04-01T20:34:32.160Z,99116.56
2023-04-01T20:37:08.201Z,99127.28
2023-04-01T20:39:41.311Z,99137.84
2023-04-01T20:42:39.065Z,99148.91
2023-04-01T20:45:40.051Z,99159.75
2023-04-01T20:48:25.149Z,99166.78
2023-04-01T20:50:58.753Z,99179.50
2023-04-01T20:53:45.252Z,99180.50
2023-04-01T20:56:34.276Z,99182.53
2023-04-01T20:59:04.346Z,99183.66
2023-04-01T21:01:53.121Z,99190.16
2023-04-01T21:04:31.893Z,99193.56
2023-04-01T21:07:01.164Z,99202.53
2023-04-01T21:09:36.985Z,99200.66
2023-04-01T21:12:40.917Z,99201.69
2023-04-01T21:15:45.284Z,99204.22
2023-04-01T21:18:37.705Z,99224.66
2023-04-01T21:21:16.777Z,99234.34
2023-04-01T21:24:16.296Z,99256.38
2023-04-01T21:27:07.119Z,99256.84
2023-04-01T21:29:37.563Z,99271.03
2023-04-01T21:32:42.069Z,99264.72
2023-04-01T21:35:24.051Z,99270.50
2023-04-01T21:38:19.784Z,99265.88
2023-04-01T21:41:21.134Z,99276.03
2023-04-01T21:44:09.590Z,99278.63
2023-04-01T21:46:39.630Z,99265.25
2023-04-01T21:49:40.741Z,99267.59
2023-04-01T21:52:39.999Z,99269.44
2023-04-01T21:55:29.765Z,99263.94
2023-04-01T21:58:05.668Z,99265.00
2023-04-01T22:00:53.710Z,99276.38
2023-04-01T22:03:40.970Z,99270.75
2023-04-01T22:06:29.499Z,99272.72
2023-04-01T22:09:12.785Z,99277.00
2023-04-01T22:12:05.624Z,99275.78
2023-04-01T22:14:57.853Z,99284.91
2023-04-01T22:17:34.208Z,99290.59
2023-04-01T22:20:22.559Z,99295.03
2023-04-01T22:23:14.004Z,99304.75
2023-04-01T22:25:51.209Z,99319.56
2023-04-01T22:28:25.732Z,99319.34
2023-04-01T22:31:01.398Z,99315.66
2023-04-01T22:33:46.416Z,99316.69
2023-04-01T22:36:40.221Z,99318.97
2023-04-01T22:39:07.148Z,99317.16
2023-04-01T22:41:59.132Z,99310.72
2023-04-01T22:44:52.311Z,99315.81
2023-04-01T22:47:54.495Z,99310.53
2023-04-01T22:50:41.590Z,99312.97
2023-04-01T22:53:27.539Z,99312.44
2023-04-01T22:55:58.524Z,99317.16
2023-04-01T22:58:33.855Z,99330.00
2023-04-01T23:01:06.895Z,99327.47
2023-04-01T23:03:41.930Z,99331.81
2023-04-01T23:06:18.239Z,99333.19
2023-04-01T23:08:55.664Z,99339.59
2023-04-01T23:11:29.126Z,99335.38
2023-04-01T23:14:24.427Z,99326.91
2023-04-01T23:16:59.237Z,99323.91
2023-04-01T23:19:37.172Z,99333.41
2023-04-01T23:22:17.703Z,99339.75
2023-04-01T23:24:54.024Z,99341.34
2023-04-01T23:27:39.327Z,99341.09
2023-04-01T23:30:45.285Z,99332.63
2023-04-01T23:33:12.153Z,99343.38
2023-04-01T23:35:49.533Z,99336.25
2023-04-01T23:38:17.809Z,99334.16
2023-04-01T23:40:44.955Z,99345.44
2023-04-01T23:43:21.812Z,99337.16
2023-04-01T23:45:48.963Z,99328.41
2023-04-01T23:48:17.762Z,99340.97
2023-04-01T23:50:46.913Z,99339.34
2023-04-01T23:53:24.443Z,99348.09
2023-04-01T23:55:52.827Z,99349.75
2023-04-01T23:58:57.778Z,99361.72
